sensor_id;sensor_type;location;lat;lon;timestamp;pressure;altitude;pressure_sealevel;temperature;humidity
17254;BME280;32542;52.832;13.816;2022-12-18T00:00:00;103169.69;;;19.73;49.12
17254;BME280;32542;52.832;13.816;2022-12-18T00:03:04;103175.03;;;19.71;48.94
17254;BME280;32542;52.832;13.816;2022-12-18T00:06:08;103177.69;;;19.70;49.08
17254;BME280;32542;52.832;13.816;2022-12-18T00:09:11;103187.41;;;19.71;48.89
17254;BME280;32542;52.832;13.816;2022-12-18T00:12:14;103182.13;;;19.69;48.94
17254;BME280;32542;52.832;13.816;2022-12-18T00:15:22;103186.53;;;19.69;48.83
17254;BME280;32542;52.832;13.816;2022-12-18T00:18:26;103192.78;;;19.68;49.01
17254;BME280;32542;52.832;13.816;2022-12-18T00:21:30;103191.91;;;19.66;48.94
17254;BME280;32542;52.832;13.816;2022-12-18T00:24:33;103196.31;;;19.65;48.90
17254;BME280;32542;52.832;13.816;2022-12-18T00:27:36;103200.75;;;19.65;48.95
17254;BME280;32542;52.832;13.816;2022-12-18T00:30:39;103198.97;;;19.62;48.99
17254;BME280;32542;52.832;13.816;2022-12-18T00:33:44;103200.75;;;19.62;48.96
17254;BME280;32542;52.832;13.816;2022-12-18T00:36:48;103197.22;;;19.61;48.97
17254;BME280;32542;52.832;13.816;2022-12-18T00:39:51;103193.69;;;19.61;48.93
17254;BME280;32542;52.832;13.816;2022-12-18T00:42:54;103194.56;;;19.61;48.89
17254;BME280;32542;52.832;13.816;2022-12-18T00:45:59;103197.22;;;19.61;48.90
17254;BME280;32542;52.832;13.816;2022-12-18T00:49:04;103205.19;;;19.61;48.91
17254;BME280;32542;52.832;13.816;2022-12-18T00:52:07;103202.53;;;19.61;48.82
17254;BME280;32542;52.832;13.816;2022-12-18T00:55:10;103201.66;;;19.61;49.01
17254;BME280;32542;52.832;13.816;2022-12-18T00:58:15;103208.75;;;19.60;48.76
17254;BME280;32542;52.832;13.816;2022-12-18T01:01:18;103209.63;;;19.61;48.93
17254;BME280;32542;52.832;13.816;2022-12-18T01:04:22;103206.97;;;19.61;49.11
17254;BME280;32542;52.832;13.816;2022-12-18T01:07:25;103218.47;;;19.60;48.83
17254;BME280;32542;52.832;13.816;2022-12-18T01:10:28;103211.41;;;19.59;48.87
17254;BME280;32542;52.832;13.816;2022-12-18T01:13:31;103216.72;;;19.59;48.77
17254;BME280;32542;52.832;13.816;2022-12-18T01:16:34;103214.94;;;19.58;48.88
17254;BME280;32542;52.832;13.816;2022-12-18T01:19:40;103214.09;;;19.57;48.82
17254;BME280;32542;52.832;13.816;2022-12-18T01:22:44;103221.16;;;19.58;48.70
17254;BME280;32542;52.832;13.816;2022-12-18T01:25:47;103214.94;;;19.58;48.78
17254;BME280;32542;52.832;13.816;2022-12-18T01:28:50;103207.88;;;19.57;48.83
17254;BME280;32542;52.832;13.816;2022-12-18T01:31:55;103213.19;;;19.57;48.78
17254;BME280;32542;52.832;13.816;2022-12-18T01:34:59;103220.28;;;19.56;48.83
17254;BME280;32542;52.832;13.816;2022-12-18T01:38:02;103224.69;;;19.56;48.80
17254;BME280;32542;52.832;13.816;2022-12-18T01:41:05;103222.94;;;19.56;48.85
17254;BME280;32542;52.832;13.816;2022-12-18T01:47:47;103222.94;;;19.55;48.86
17254;BME280;32542;52.832;13.816;2022-12-18T01:50:51;103229.13;;;19.54;48.83
17254;BME280;32542;52.832;13.816;2022-12-18T01:53:54;103232.69;;;19.54;48.90
17254;BME280;32542;52.832;13.816;2022-12-18T01:56:57;103231.78;;;19.54;48.76
17254;BME280;32542;52.832;13.816;2022-12-18T02:00:06;103234.44;;;19.54;48.64
17254;BME280;32542;52.832;13.816;2022-12-18T02:03:18;103230.94;;;19.53;48.73
17254;BME280;32542;52.832;13.816;2022-12-18T02:06:28;103234.44;;;19.54;48.75
17254;BME280;32542;52.832;13.816;2022-12-18T02:09:36;103230.03;;;19.53;48.80
17254;BME280;32542;52.832;13.816;2022-12-18T02:12:45;103232.69;;;19.53;48.64
17254;BME280;32542;52.832;13.816;2022-12-18T02:15:55;103237.13;;;19.52;48.82
17254;BME280;32542;52.832;13.816;2022-12-18T02:19:09;103237.13;;;19.52;48.73
17254;BME280;32542;52.832;13.816;2022-12-18T02:22:26;103234.47;;;19.51;48.88
17254;BME280;32542;52.832;13.816;2022-12-18T02:25:51;103233.56;;;19.52;48.80
17254;BME280;32542;52.832;13.816;2022-12-18T02:28:59;103240.66;;;19.51;48.77
17254;BME280;32542;52.832;13.816;2022-12-18T02:32:09;103232.69;;;19.50;48.92
17254;BME280;32542;52.832;13.816;2022-12-18T02:35:16;103238.91;;;19.50;48.76
17254;BME280;32542;52.832;13.816;2022-12-18T02:38:21;103244.22;;;19.50;48.83
17254;BME280;32542;52.832;13.816;2022-12-18T02:41:28;103249.50;;;19.52;48.49
17254;BME280;32542;52.832;13.816;2022-12-18T02:44:33;103250.44;;;19.51;48.44
17254;BME280;32542;52.832;13.816;2022-12-18T02:47:40;103252.19;;;19.52;48.75
17254;BME280;32542;52.832;13.816;2022-12-18T02:50:55;103253.06;;;19.52;48.66
17254;BME280;32542;52.832;13.816;2022-12-18T02:54:06;103255.75;;;19.51;48.61
17254;BME280;32542;52.832;13.816;2022-12-18T02:57:18;103258.38;;;19.52;48.71
17254;BME280;32542;52.832;13.816;2022-12-18T03:00:28;103254.84;;;19.52;48.69
17254;BME280;32542;52.832;13.816;2022-12-18T03:03:36;103262.81;;;19.52;48.82
17254;BME280;32542;52.832;13.816;2022-12-18T03:06:46;103257.50;;;19.52;48.67
17254;BME280;32542;52.832;13.816;2022-12-18T03:09:51;103255.75;;;19.51;48.69
17254;BME280;32542;52.832;13.816;2022-12-18T03:13:02;103259.28;;;19.50;48.56
17254;BME280;32542;52.832;13.816;2022-12-18T03:16:09;103264.59;;;19.50;48.61
17254;BME280;32542;52.832;13.816;2022-12-18T03:19:16;103275.22;;;19.50;48.68
17254;BME280;32542;52.832;13.816;2022-12-18T03:22:23;103269.91;;;19.50;48.55
17254;BME280;32542;52.832;13.816;2022-12-18T03:25:31;103264.59;;;19.50;48.69
17254;BME280;32542;52.832;13.816;2022-12-18T03:28:38;103269.00;;;19.49;48.77
17254;BME280;32542;52.832;13.816;2022-12-18T03:31:47;103272.56;;;19.48;48.68
17254;BME280;32542;52.832;13.816;2022-12-18T03:34:52;103277.00;;;19.48;48.57
17254;BME280;32542;52.832;13.816;2022-12-18T03:37:58;103278.75;;;19.47;48.56
17254;BME280;32542;52.832;13.816;2022-12-18T03:41:09;103274.34;;;19.48;48.54
17254;BME280;32542;52.832;13.816;2022-12-18T03:44:40;103284.97;;;19.46;48.68
17254;BME280;32542;52.832;13.816;2022-12-18T03:47:59;103277.91;;;19.47;48.63
17254;BME280;32542;52.832;13.816;2022-12-18T03:51:11;103274.34;;;19.46;48.61
17254;BME280;32542;52.832;13.816;2022-12-18T03:54:18;103277.00;;;19.46;48.63
17254;BME280;32542;52.832;13.816;2022-12-18T03:57:31;103274.34;;;19.46;48.53
17254;BME280;32542;52.832;13.816;2022-12-18T04:00:38;103282.31;;;19.46;48.60
17254;BME280;32542;52.832;13.816;2022-12-18T04:03:46;103285.88;;;19.47;48.67
17254;BME280;32542;52.832;13.816;2022-12-18T04:06:53;103281.44;;;19.45;48.55
17254;BME280;32542;52.832;13.816;2022-12-18T04:09:59;103279.66;;;19.46;48.46
17254;BME280;32542;52.832;13.816;2022-12-18T04:13:05;103273.47;;;19.45;48.54
17254;BME280;32542;52.832;13.816;2022-12-18T04:16:11;103273.47;;;19.45;48.49
17254;BME280;32542;52.832;13.816;2022-12-18T04:19:16;103277.88;;;19.45;48.52
17254;BME280;32542;52.832;13.816;2022-12-18T04:22:22;103284.09;;;19.45;48.43
17254;BME280;32542;52.832;13.816;2022-12-18T04:25:31;103297.38;;;19.45;48.48
17254;BME280;32542;52.832;13.816;2022-12-18T04:28:44;103300.03;;;19.45;48.42
17254;BME280;32542;52.832;13.816;2022-12-18T04:31:48;103292.94;;;19.46;48.70
17254;BME280;32542;52.832;13.816;2022-12-18T04:34:51;103292.06;;;19.45;48.54
17254;BME280;32542;52.832;13.816;2022-12-18T04:37:55;103292.06;;;19.45;48.40
17254;BME280;32542;52.832;13.816;2022-12-18T04:40:58;103295.63;;;19.46;48.47
17254;BME280;32542;52.832;13.816;2022-12-18T04:44:01;103293.81;;;19.45;48.50
17254;BME280;32542;52.832;13.816;2022-12-18T04:47:06;103284.09;;;19.45;48.49
17254;BME280;32542;52.832;13.816;2022-12-18T04:50:09;103285.00;;;19.44;48.41
17254;BME280;32542;52.832;13.816;2022-12-18T04:53:12;103292.06;;;19.44;48.35
17254;BME280;32542;52.832;13.816;2022-12-18T04:56:15;103287.63;;;19.43;48.43
17254;BME280;32542;52.832;13.816;2022-12-18T04:59:18;103298.25;;;19.43;48.43
17254;BME280;32542;52.832;13.816;2022-12-18T05:02:22;103310.69;;;19.42;48.33
17254;BME280;32542;52.832;13.816;2022-12-18T05:05:25;103313.34;;;19.42;48.48
17254;BME280;32542;52.832;13.816;2022-12-18T05:08:28;103316.88;;;19.41;48.52
17254;BME280;32542;52.832;13.816;2022-12-18T05:11:31;103316.88;;;19.41;48.38
17254;BME280;32542;52.832;13.816;2022-12-18T05:14:34;103321.31;;;19.42;48.26
17254;BME280;32542;52.832;13.816;2022-12-18T05:17:39;103317.75;;;19.40;48.35
17254;BME280;32542;52.832;13.816;2022-12-18T05:20:41;103320.41;;;19.40;48.38
17254;BME280;32542;52.832;13.816;2022-12-18T05:23:44;103322.19;;;19.40;48.37
17254;BME280;32542;52.832;13.816;2022-12-18T05:26:47;103337.25;;;19.39;48.40
17254;BME280;32542;52.832;13.816;2022-12-18T05:29:50;103346.09;;;19.38;48.37
17254;BME280;32542;52.832;13.816;2022-12-18T05:32:54;103347.88;;;19.38;48.33
17254;BME280;32542;52.832;13.816;2022-12-18T05:36:03;103343.44;;;19.37;48.41
17254;BME280;32542;52.832;13.816;2022-12-18T05:39:06;103342.56;;;19.36;48.41
17254;BME280;32542;52.832;13.816;2022-12-18T05:42:09;103357.63;;;19.36;48.44
17254;BME280;32542;52.832;13.816;2022-12-18T05:45:12;103346.13;;;19.35;48.45
17254;BME280;32542;52.832;13.816;2022-12-18T05:48:17;103358.50;;;19.36;48.34
17254;BME280;32542;52.832;13.816;2022-12-18T05:51:21;103363.81;;;19.36;48.39
17254;BME280;32542;52.832;13.816;2022-12-18T05:54:26;103360.28;;;19.36;48.28
17254;BME280;32542;52.832;13.816;2022-12-18T05:57:29;103363.81;;;19.36;48.29
17254;BME280;32542;52.832;13.816;2022-12-18T06:00:34;103358.50;;;19.36;48.39
17254;BME280;32542;52.832;13.816;2022-12-18T06:03:39;103379.75;;;19.36;48.51
17254;BME280;32542;52.832;13.816;2022-12-18T06:06:43;103374.44;;;19.36;48.43
17254;BME280;32542;52.832;13.816;2022-12-18T06:09:46;103361.16;;;19.35;48.31
17254;BME280;32542;52.832;13.816;2022-12-18T06:12:48;103364.72;;;19.35;48.44
17254;BME280;32542;52.832;13.816;2022-12-18T06:15:51;103377.13;;;19.38;48.44
17254;BME280;32542;52.832;13.816;2022-12-18T06:18:57;103377.09;;;19.39;48.77
17254;BME280;32542;52.832;13.816;2022-12-18T06:22:00;103383.28;;;19.43;50.22
17254;BME280;32542;52.832;13.816;2022-12-18T06:25:04;103379.75;;;19.45;50.61
17254;BME280;32542;52.832;13.816;2022-12-18T06:28:08;103383.31;;;19.46;49.70
17254;BME280;32542;52.832;13.816;2022-12-18T06:31:11;103391.28;;;19.46;48.92
17254;BME280;32542;52.832;13.816;2022-12-18T06:34:16;103394.81;;;19.43;46.82
17254;BME280;32542;52.832;13.816;2022-12-18T06:37:19;103394.81;;;19.40;47.22
17254;BME280;32542;52.832;13.816;2022-12-18T06:40:22;103405.44;;;19.40;46.92
17254;BME280;32542;52.832;13.816;2022-12-18T06:43:25;103419.63;;;19.41;46.50
17254;BME280;32542;52.832;13.816;2022-12-18T06:46:28;103431.16;;;19.44;46.11
17254;BME280;32542;52.832;13.816;2022-12-18T06:49:32;103431.16;;;19.51;45.86
17254;BME280;32542;52.832;13.816;2022-12-18T06:52:35;103433.78;;;19.58;45.68
17254;BME280;32542;52.832;13.816;2022-12-18T06:55:38;103430.25;;;19.65;45.65
17254;BME280;32542;52.832;13.816;2022-12-18T06:58:42;103429.34;;;19.71;45.77
17254;BME280;32542;52.832;13.816;2022-12-18T07:01:45;103424.94;;;19.76;46.00
17254;BME280;32542;52.832;13.816;2022-12-18T07:04:49;103419.59;;;19.79;46.14
17254;BME280;32542;52.832;13.816;2022-12-18T07:07:52;103425.78;;;19.81;46.40
17254;BME280;32542;52.832;13.816;2022-12-18T07:10:55;103426.69;;;19.81;46.62
17254;BME280;32542;52.832;13.816;2022-12-18T07:13:58;103427.56;;;19.82;46.78
17254;BME280;32542;52.832;13.816;2022-12-18T07:17:01;103434.66;;;19.80;46.62
17254;BME280;32542;52.832;13.816;2022-12-18T07:20:07;103437.34;;;19.78;46.78
17254;BME280;32542;52.832;13.816;2022-12-18T07:23:10;103436.47;;;19.76;46.87
17254;BME280;32542;52.832;13.816;2022-12-18T07:26:14;103435.56;;;19.76;46.92
17254;BME280;32542;52.832;13.816;2022-12-18T07:29:17;103431.13;;;19.75;46.86
17254;BME280;32542;52.832;13.816;2022-12-18T07:32:20;103442.66;;;19.74;47.18
17254;BME280;32542;52.832;13.816;2022-12-18T07:35:25;103451.50;;;19.73;47.10
17254;BME280;32542;52.832;13.816;2022-12-18T07:38:28;103451.53;;;19.71;47.05
17254;BME280;32542;52.832;13.816;2022-12-18T07:41:31;103447.06;;;19.70;47.03
17254;BME280;32542;52.832;13.816;2022-12-18T07:44:42;103450.63;;;19.71;47.06
17254;BME280;32542;52.832;13.816;2022-12-18T07:47:45;103455.97;;;19.68;47.02
17254;BME280;32542;52.832;13.816;2022-12-18T07:50:50;103457.72;;;19.66;47.12
17254;BME280;32542;52.832;13.816;2022-12-18T07:53:53;103461.25;;;19.65;46.95
17254;BME280;32542;52.832;13.816;2022-12-18T07:56:56;103459.50;;;19.64;47.22
17254;BME280;32542;52.832;13.816;2022-12-18T07:59:59;103455.94;;;19.62;47.00
17254;BME280;32542;52.832;13.816;2022-12-18T08:03:12;103458.59;;;19.60;47.28
17254;BME280;32542;52.832;13.816;2022-12-18T08:06:17;103444.44;;;19.58;47.34
17254;BME280;32542;52.832;13.816;2022-12-18T08:09:23;103443.53;;;19.58;47.24
17254;BME280;32542;52.832;13.816;2022-12-18T08:12:26;103447.09;;;19.57;47.23
17254;BME280;32542;52.832;13.816;2022-12-18T08:15:29;103448.84;;;19.56;47.23
17254;BME280;32542;52.832;13.816;2022-12-18T08:18:34;103448.84;;;19.56;47.23
17254;BME280;32542;52.832;13.816;2022-12-18T08:21:39;103450.63;;;19.56;46.98
17254;BME280;32542;52.832;13.816;2022-12-18T08:24:42;103447.09;;;19.57;47.23
17254;BME280;32542;52.832;13.816;2022-12-18T08:27:45;103451.53;;;19.55;47.13
17254;BME280;32542;52.832;13.816;2022-12-18T08:30:51;103450.63;;;19.54;47.10
17254;BME280;32542;52.832;13.816;2022-12-18T08:33:55;103459.50;;;19.55;47.07
17254;BME280;32542;52.832;13.816;2022-12-18T08:36:59;103469.25;;;19.54;47.09
17254;BME280;32542;52.832;13.816;2022-12-18T08:40:03;103479.00;;;19.55;47.02
17254;BME280;32542;52.832;13.816;2022-12-18T08:43:07;103472.78;;;19.55;47.02
17254;BME280;32542;52.832;13.816;2022-12-18T08:46:33;103468.34;;;19.57;46.95
17254;BME280;32542;52.832;13.816;2022-12-18T08:49:36;103472.78;;;19.58;46.87
17254;BME280;32542;52.832;13.816;2022-12-18T08:52:40;103482.53;;;19.59;46.87
17254;BME280;32542;52.832;13.816;2022-12-18T08:55:43;103478.97;;;19.60;46.98
17254;BME280;32542;52.832;13.816;2022-12-18T08:58:53;103484.28;;;19.60;46.75
17254;BME280;32542;52.832;13.816;2022-12-18T09:01:56;103489.63;;;19.61;46.77
17254;BME280;32542;52.832;13.816;2022-12-18T09:04:59;103498.47;;;19.62;46.62
17254;BME280;32542;52.832;13.816;2022-12-18T09:08:03;103497.59;;;19.61;46.89
17254;BME280;32542;52.832;13.816;2022-12-18T09:11:11;103500.25;;;19.61;46.86
17254;BME280;32542;52.832;13.816;2022-12-18T09:14:15;103486.94;;;19.60;46.92
17254;BME280;32542;52.832;13.816;2022-12-18T09:17:18;103487.84;;;19.59;46.95
17254;BME280;32542;52.832;13.816;2022-12-18T09:20:21;103494.03;;;19.58;46.97
17254;BME280;32542;52.832;13.816;2022-12-18T09:23:25;103502.91;;;19.57;47.10
17254;BME280;32542;52.832;13.816;2022-12-18T09:26:28;103513.56;;;19.57;46.96
17254;BME280;32542;52.832;13.816;2022-12-18T09:29:32;103518.88;;;19.55;46.97
17254;BME280;32542;52.832;13.816;2022-12-18T09:32:35;103510.00;;;19.55;47.00
17254;BME280;32542;52.832;13.816;2022-12-18T09:35:38;103507.34;;;19.55;47.23
17254;BME280;32542;52.832;13.816;2022-12-18T09:38:43;103502.03;;;19.55;47.08
17254;BME280;32542;52.832;13.816;2022-12-18T09:41:47;103500.25;;;19.54;46.91
17254;BME280;32542;52.832;13.816;2022-12-18T09:44:55;103509.13;;;19.53;46.92
17254;BME280;32542;52.832;13.816;2022-12-18T09:47:58;103506.44;;;19.51;46.93
17254;BME280;32542;52.832;13.816;2022-12-18T09:51:05;103492.28;;;19.51;47.04
17254;BME280;32542;52.832;13.816;2022-12-18T09:54:16;103486.06;;;19.49;46.97
17254;BME280;32542;52.832;13.816;2022-12-18T09:57:23;103482.53;;;19.48;46.99
17254;BME280;32542;52.832;13.816;2022-12-18T10:00:27;103486.94;;;19.48;47.09
17254;BME280;32542;52.832;13.816;2022-12-18T10:03:29;103481.63;;;19.46;47.09
17254;BME280;32542;52.832;13.816;2022-12-18T10:06:37;103478.09;;;19.47;47.04
17254;BME280;32542;52.832;13.816;2022-12-18T10:09:46;103473.66;;;19.48;47.16
17254;BME280;32542;52.832;13.816;2022-12-18T10:12:56;103476.31;;;19.49;46.95
17254;BME280;32542;52.832;13.816;2022-12-18T10:16:09;103471.88;;;19.50;46.95
17254;BME280;32542;52.832;13.816;2022-12-18T10:19:24;103470.13;;;19.50;46.80
17254;BME280;32542;52.832;13.816;2022-12-18T10:22:45;103465.69;;;19.52;46.87
17254;BME280;32542;52.832;13.816;2022-12-18T10:25:55;103461.28;;;19.53;46.87
17254;BME280;32542;52.832;13.816;2022-12-18T10:29:08;103455.06;;;19.52;46.88
17254;BME280;32542;52.832;13.816;2022-12-18T10:32:15;103434.69;;;19.53;46.95
17254;BME280;32542;52.832;13.816;2022-12-18T10:35:20;103431.13;;;19.54;46.89
17254;BME280;32542;52.832;13.816;2022-12-18T10:38:25;103431.13;;;19.54;46.91
17254;BME280;32542;52.832;13.816;2022-12-18T10:41:29;103427.59;;;19.55;46.86
17254;BME280;32542;52.832;13.816;2022-12-18T10:44:33;103420.50;;;19.54;46.97
17254;BME280;32542;52.832;13.816;2022-12-18T10:47:37;103427.59;;;19.56;46.86
17254;BME280;32542;52.832;13.816;2022-12-18T10:50:47;103425.84;;;19.57;46.68
17254;BME280;32542;52.832;13.816;2022-12-18T10:54:15;103411.66;;;19.56;46.87
17254;BME280;32542;52.832;13.816;2022-12-18T10:57:33;103414.31;;;19.56;46.83
17254;BME280;32542;52.832;13.816;2022-12-18T11:00:36;103418.72;;;19.56;46.89
17254;BME280;32542;52.832;13.816;2022-12-18T11:03:41;103412.53;;;19.54;46.95
17254;BME280;32542;52.832;13.816;2022-12-18T11:06:53;103408.13;;;19.53;46.93
17254;BME280;32542;52.832;13.816;2022-12-18T11:10:00;103413.44;;;19.53;47.12
17254;BME280;32542;52.832;13.816;2022-12-18T11:13:17;103402.78;;;19.51;46.98
17254;BME280;32542;52.832;13.816;2022-12-18T11:16:20;103401.03;;;19.49;47.02
17254;BME280;32542;52.832;13.816;2022-12-18T11:19:33;103398.38;;;19.49;47.04
17254;BME280;32542;52.832;13.816;2022-12-18T11:22:37;103404.56;;;19.48;47.00
17254;BME280;32542;52.832;13.816;2022-12-18T11:25:51;103408.13;;;19.47;47.06
17254;BME280;32542;52.832;13.816;2022-12-18T11:29:08;103388.63;;;19.46;47.15
17254;BME280;32542;52.832;13.816;2022-12-18T11:32:34;103393.94;;;19.46;47.10
17254;BME280;32542;52.832;13.816;2022-12-18T11:35:43;103394.84;;;19.47;47.13
17254;BME280;32542;52.832;13.816;2022-12-18T11:38:52;103390.38;;;19.45;47.16
17254;BME280;32542;52.832;13.816;2022-12-18T11:42:01;103396.59;;;19.46;47.11
17254;BME280;32542;52.832;13.816;2022-12-18T11:45:27;103399.25;;;19.46;47.13
17254;BME280;32542;52.832;13.816;2022-12-18T11:48:33;103406.34;;;19.45;47.10
17254;BME280;32542;52.832;13.816;2022-12-18T11:51:41;103410.75;;;19.45;47.02
17254;BME280;32542;52.832;13.816;2022-12-18T11:54:51;103416.06;;;19.45;47.14
17254;BME280;32542;52.832;13.816;2022-12-18T11:58:00;103416.97;;;19.45;47.07
17254;BME280;32542;52.832;13.816;2022-12-18T12:01:15;103411.66;;;19.45;47.06
17254;BME280;32542;52.832;13.816;2022-12-18T12:04:37;103412.53;;;19.48;46.95
17254;BME280;32542;52.832;13.816;2022-12-18T12:07:47;103426.72;;;19.48;46.97
17254;BME280;32542;52.832;13.816;2022-12-18T12:11:01;103433.78;;;19.49;46.96
17254;BME280;32542;52.832;13.816;2022-12-18T12:14:21;103432.03;;;19.50;46.94
17254;BME280;32542;52.832;13.816;2022-12-18T12:17:36;103423.19;;;19.51;46.97
17254;BME280;32542;52.832;13.816;2022-12-18T12:20:47;103412.53;;;19.51;46.97
17254;BME280;32542;52.832;13.816;2022-12-18T12:23:58;103419.63;;;19.52;46.86
17254;BME280;32542;52.832;13.816;2022-12-18T12:27:15;103432.91;;;19.52;46.90
17254;BME280;32542;52.832;13.816;2022-12-18T12:30:21;103441.78;;;19.51;46.91
17254;BME280;32542;52.832;13.816;2022-12-18T12:33:34;103447.97;;;19.51;47.17
17254;BME280;32542;52.832;13.816;2022-12-18T12:36:50;103440.00;;;19.50;47.09
17254;BME280;32542;52.832;13.816;2022-12-18T12:39:56;103438.25;;;19.49;47.04
17254;BME280;32542;52.832;13.816;2022-12-18T12:43:01;103451.53;;;19.49;46.99
17254;BME280;32542;52.832;13.816;2022-12-18T12:46:17;103455.06;;;19.48;47.05
17254;BME280;32542;52.832;13.816;2022-12-18T12:49:27;103460.38;;;19.49;47.24
17254;BME280;32542;52.832;13.816;2022-12-18T12:52:35;103447.97;;;19.48;47.03
17254;BME280;32542;52.832;13.816;2022-12-18T12:55:40;103440.88;;;19.47;47.06
17254;BME280;32542;52.832;13.816;2022-12-18T12:58:51;103431.13;;;19.48;47.06
17254;BME280;32542;52.832;13.816;2022-12-18T13:01:59;103429.38;;;19.47;47.04
17254;BME280;32542;52.832;13.816;2022-12-18T13:05:16;103427.59;;;19.45;47.10
17254;BME280;32542;52.832;13.816;2022-12-18T13:08:23;103420.53;;;19.44;47.04
17254;BME280;32542;52.832;13.816;2022-12-18T13:11:35;103419.63;;;19.44;47.07
17254;BME280;32542;52.832;13.816;2022-12-18T13:15:13;103424.94;;;19.44;47.03
17254;BME280;32542;52.832;13.816;2022-12-18T13:18:23;103415.22;;;19.44;47.10
17254;BME280;32542;52.832;13.816;2022-12-18T13:21:32;103409.00;;;19.44;47.14
17254;BME280;32542;52.832;13.816;2022-12-18T13:24:36;103402.78;;;19.45;47.04
17254;BME280;32542;52.832;13.816;2022-12-18T13:31:00;103401.94;;;19.44;47.07
17254;BME280;32542;52.832;13.816;2022-12-18T13:34:14;103414.31;;;19.45;47.13
17254;BME280;32542;52.832;13.816;2022-12-18T13:37:43;103411.63;;;19.47;46.96
17254;BME280;32542;52.832;13.816;2022-12-18T13:40:54;103409.00;;;19.45;46.82
17254;BME280;32542;52.832;13.816;2022-12-18T13:44:11;103416.97;;;19.45;47.11
17254;BME280;32542;52.832;13.816;2022-12-18T13:47:25;103418.75;;;19.47;46.97
17254;BME280;32542;52.832;13.816;2022-12-18T13:50:30;103413.44;;;19.47;47.13
17254;BME280;32542;52.832;13.816;2022-12-18T13:53:42;103420.50;;;19.48;47.24
17254;BME280;32542;52.832;13.816;2022-12-18T13:56:48;103416.09;;;19.47;47.13
17254;BME280;32542;52.832;13.816;2022-12-18T13:59:51;103409.88;;;19.46;47.12
17254;BME280;32542;52.832;13.816;2022-12-18T14:02:55;103399.25;;;19.48;47.12
17254;BME280;32542;52.832;13.816;2022-12-18T14:06:01;103400.13;;;19.48;47.18
17254;BME280;32542;52.832;13.816;2022-12-18T14:09:12;103387.72;;;19.47;47.09
17254;BME280;32542;52.832;13.816;2022-12-18T14:12:24;103378.88;;;19.48;47.19
17254;BME280;32542;52.832;13.816;2022-12-18T14:15:47;103371.78;;;19.45;47.13
17254;BME280;32542;52.832;13.816;2022-12-18T14:18:53;103375.34;;;19.44;47.07
17254;BME280;32542;52.832;13.816;2022-12-18T14:22:15;103368.25;;;19.43;47.11
17254;BME280;32542;52.832;13.816;2022-12-18T14:25:22;103364.72;;;19.44;47.10
17254;BME280;32542;52.832;13.816;2022-12-18T14:28:27;103360.28;;;19.43;47.13
17254;BME280;32542;52.832;13.816;2022-12-18T14:31:31;103369.13;;;19.44;47.14
17254;BME280;32542;52.832;13.816;2022-12-18T14:34:34;103370.91;;;19.43;47.07
17254;BME280;32542;52.832;13.816;2022-12-18T14:37:36;103363.84;;;19.42;47.20
17254;BME280;32542;52.832;13.816;2022-12-18T14:40:41;103362.94;;;19.43;47.25
17254;BME280;32542;52.832;13.816;2022-12-18T14:43:46;103350.53;;;19.44;47.07
17254;BME280;32542;52.832;13.816;2022-12-18T14:46:50;103333.69;;;19.43;47.12
17254;BME280;32542;52.832;13.816;2022-12-18T14:49:54;103330.16;;;19.44;46.97
17254;BME280;32542;52.832;13.816;2022-12-18T14:52:57;103331.94;;;19.42;47.04
17254;BME280;32542;52.832;13.816;2022-12-18T14:56:02;103326.63;;;19.42;47.07
17254;BME280;32542;52.832;13.816;2022-12-18T14:59:13;103314.19;;;19.43;47.04
17254;BME280;32542;52.832;13.816;2022-12-18T15:02:26;103320.44;;;19.42;46.96
17254;BME280;32542;52.832;13.816;2022-12-18T15:05:31;103332.81;;;19.43;47.08
17254;BME280;32542;52.832;13.816;2022-12-18T15:08:36;103323.97;;;19.42;47.24
17254;BME280;32542;52.832;13.816;2022-12-18T15:11:46;103333.69;;;19.43;46.94
17254;BME280;32542;52.832;13.816;2022-12-18T15:14:50;103333.69;;;19.43;46.98
17254;BME280;32542;52.832;13.816;2022-12-18T15:17:57;103340.81;;;19.44;47.02
17254;BME280;32542;52.832;13.816;2022-12-18T15:21:07;103348.78;;;19.44;47.06
17254;BME280;32542;52.832;13.816;2022-12-18T15:24:17;103362.06;;;19.46;46.91
17254;BME280;32542;52.832;13.816;2022-12-18T15:27:28;103370.03;;;19.44;47.04
17254;BME280;32542;52.832;13.816;2022-12-18T15:30:32;103370.91;;;19.43;47.07
17254;BME280;32542;52.832;13.816;2022-12-18T15:33:36;103362.94;;;19.43;47.11
17254;BME280;32542;52.832;13.816;2022-12-18T15:36:40;103362.94;;;19.43;47.05
17254;BME280;32542;52.832;13.816;2022-12-18T15:39:43;103368.25;;;19.42;47.11
17254;BME280;32542;52.832;13.816;2022-12-18T15:42:48;103363.84;;;19.42;46.89
17254;BME280;32542;52.832;13.816;2022-12-18T15:46:12;103354.94;;;19.40;47.29
17254;BME280;32542;52.832;13.816;2022-12-18T15:49:15;103354.06;;;19.41;47.13
17254;BME280;32542;52.832;13.816;2022-12-18T15:52:18;103356.72;;;19.41;46.99
17254;BME280;32542;52.832;13.816;2022-12-18T15:55:27;103352.31;;;19.42;47.01
17254;BME280;32542;52.832;13.816;2022-12-18T15:58:49;103353.22;;;19.42;47.07
17254;BME280;32542;52.832;13.816;2022-12-18T16:01:52;103342.56;;;19.44;46.94
17254;BME280;32542;52.832;13.816;2022-12-18T16:04:56;103345.22;;;19.42;47.04
17254;BME280;32542;52.832;13.816;2022-12-18T16:07:59;103357.63;;;19.42;47.01
17254;BME280;32542;52.832;13.816;2022-12-18T16:11:02;103356.72;;;19.41;47.01